createdAt,value
2023-04-10T00:00:57.939Z,6.125
2023-04-10T00:03:58.180Z,6.062
2023-04-10T00:06:57.541Z,6.125
2023-04-10T00:09:57.254Z,6.187
2023-04-10T00:12:57.786Z,6.187
2023-04-10T00:15:57.103Z,6.187
2023-04-10T00:18:57.298Z,6.187
2023-04-10T00:21:57.581Z,6.187
2023-04-10T00:24:57.265Z,6.062
2023-04-10T00:27:57.483Z,6.0
2023-04-10T00:30:57.093Z,6.062
2023-04-10T00:33:57.897Z,6.062
2023-04-10T00:36:56.994Z,5.687
2023-04-10T00:39:57.937Z,5.875
2023-04-10T00:42:56.874Z,5.875
2023-04-10T00:45:56.936Z,5.625
2023-04-10T00:48:57.448Z,5.5
2023-04-10T00:51:58.467Z,5.5
2023-04-10T00:54:56.868Z,5.437
2023-04-10T00:57:57.426Z,5.375
2023-04-10T01:00:56.969Z,5.437
2023-04-10T01:03:58.056Z,5.437
2023-04-10T01:06:56.715Z,5.437
2023-04-10T01:09:57.194Z,5.437
2023-04-10T01:12:57.713Z,5.437
2023-04-10T01:15:56.755Z,5.375
2023-04-10T01:18:57.434Z,5.375
2023-04-10T01:21:57.140Z,5.312
2023-04-10T01:24:57.245Z,5.187
2023-04-10T01:27:57.102Z,5.187
2023-04-10T01:30:57.674Z,5.125
2023-04-10T01:33:57.546Z,5.062
2023-04-10T01:36:56.969Z,4.875
2023-04-10T01:39:56.942Z,5.0
2023-04-10T01:42:57.195Z,4.937
2023-04-10T01:45:57.941Z,4.937
2023-04-10T01:48:57.572Z,5.0
2023-04-10T01:51:57.708Z,5.0
2023-04-10T01:54:57.016Z,5.0
2023-04-10T01:57:57.843Z,5.062
2023-04-10T02:00:57.992Z,5.187
2023-04-10T02:03:57.625Z,5.125
2023-04-10T02:06:57.257Z,5.0
2023-04-10T02:09:57.798Z,5.125
2023-04-10T02:12:57.321Z,5.125
2023-04-10T02:15:57.321Z,5.0
2023-04-10T02:18:57.475Z,4.812
2023-04-10T02:21:56.777Z,4.75
2023-04-10T02:24:57.494Z,4.625
2023-04-10T02:27:57.664Z,4.25
2023-04-10T02:30:57.349Z,4.125
2023-04-10T02:33:57.326Z,3.5
2023-04-10T02:36:57.654Z,3.187
2023-04-10T02:39:57.339Z,2.875
2023-04-10T02:42:58.382Z,2.687
2023-04-10T02:45:57.647Z,2.375
2023-04-10T02:48:57.286Z,2.062
2023-04-10T02:51:57.565Z,1.937
2023-04-10T02:54:57.632Z,1.625
2023-04-10T02:57:57.034Z,1.437
2023-04-10T03:00:57.009Z,1.25
2023-04-10T03:03:57.783Z,1.25
2023-04-10T03:06:57.223Z,1.0
2023-04-10T03:09:57.716Z,0.875
2023-04-10T03:12:57.107Z,0.875
2023-04-10T03:15:57.390Z,1.625
2023-04-10T03:18:57.850Z,1.562
2023-04-10T03:21:57.667Z,1.562
2023-04-10T03:24:56.864Z,2.0
2023-04-10T03:27:57.075Z,2.0
2023-04-10T03:30:57.444Z,1.437
2023-04-10T03:33:58.271Z,1.25
2023-04-10T03:36:57.429Z,1.25
2023-04-10T03:39:57.832Z,1.0
2023-04-10T03:42:57.235Z,0.937
2023-04-10T03:45:57.353Z,0.875
2023-04-10T03:48:57.068Z,0.875
2023-04-10T03:51:56.734Z,0.812
2023-04-10T03:54:56.671Z,0.875
2023-04-10T03:57:57.844Z,0.937
2023-04-10T04:00:57.106Z,1.25
2023-04-10T04:03:57.595Z,1.5
2023-04-10T04:06:56.969Z,1.25
2023-04-10T04:09:57.862Z,0.875
2023-04-10T04:12:57.032Z,0.625
2023-04-10T04:15:57.340Z,0.812
2023-04-10T04:18:57.425Z,1.0
2023-04-10T04:21:57.195Z,1.125
2023-04-10T04:24:56.961Z,1.062
2023-04-10T04:27:56.891Z,1.062
2023-04-10T04:30:56.952Z,1.062
2023-04-10T04:33:57.719Z,1.062
2023-04-10T04:36:57.020Z,1.375
2023-04-10T04:39:57.127Z,1.375
2023-04-10T04:42:57.630Z,1.375
2023-04-10T04:45:57.683Z,1.312
2023-04-10T04:48:58.025Z,1.5
2023-04-10T04:51:57.567Z,1.562
2023-04-10T04:54:57.739Z,1.562
2023-04-10T04:57:57.572Z,2.187
2023-04-10T05:00:57.692Z,2.625
2023-04-10T05:03:57.289Z,2.812
2023-04-10T05:06:57.369Z,3.187
2023-04-10T05:09:57.365Z,3.562
2023-04-10T05:12:57.934Z,3.937
2023-04-10T05:15:58.214Z,4.125
2023-04-10T05:18:57.640Z,4.562
2023-04-10T05:21:57.140Z,4.937
2023-04-10T05:24:57.566Z,5.312
2023-04-10T05:27:57.401Z,5.625
2023-04-10T05:30:57.981Z,5.812
2023-04-10T05:33:57.216Z,5.812
2023-04-10T05:36:59.095Z,6.312
2023-04-10T05:39:58.194Z,6.312
2023-04-10T05:42:57.223Z,6.312
2023-04-10T05:45:57.706Z,6.375
2023-04-10T05:48:57.204Z,6.5
2023-04-10T05:51:57.525Z,6.5
2023-04-10T05:54:57.726Z,6.5
2023-04-10T05:57:57.719Z,6.687
2023-04-10T06:00:57.420Z,6.562
2023-04-10T06:03:57.298Z,6.687
2023-04-10T06:06:57.305Z,6.625
2023-04-10T06:09:57.379Z,6.75
2023-04-10T06:12:57.514Z,6.75
2023-04-10T06:15:58.308Z,7.0
2023-04-10T06:18:57.412Z,7.187
2023-04-10T06:21:57.252Z,7.187
2023-04-10T06:24:57.329Z,7.187
2023-04-10T06:27:57.322Z,7.312
2023-04-10T06:30:57.334Z,7.437
2023-04-10T06:33:57.439Z,7.625
2023-04-10T06:36:57.828Z,7.812
2023-04-10T06:39:57.105Z,7.812
2023-04-10T06:42:57.476Z,7.812
2023-04-10T06:45:57.947Z,7.812
2023-04-10T06:48:57.587Z,7.437
2023-04-10T06:51:57.330Z,7.687
2023-04-10T06:54:57.311Z,7.5
2023-04-10T06:57:57.319Z,7.812
2023-04-10T07:00:57.944Z,7.812
2023-04-10T07:03:57.737Z,7.937
2023-04-10T07:06:57.590Z,7.937
2023-04-10T07:09:58.315Z,8.0
2023-04-10T07:12:57.566Z,8.0
2023-04-10T07:15:57.470Z,8.812
2023-04-10T07:18:57.634Z,8.375
2023-04-10T07:21:56.786Z,8.5
2023-04-10T07:24:57.488Z,8.75
2023-04-10T07:27:57.223Z,8.75
2023-04-10T07:30:57.003Z,8.75
2023-04-10T07:33:57.041Z,8.75
2023-04-10T07:36:57.385Z,8.75
2023-04-10T07:39:57.306Z,9.5
2023-04-10T07:42:57.589Z,9.25
2023-04-10T07:45:57.226Z,9.437
2023-04-10T07:48:57.667Z,9.5
2023-04-10T07:51:57.045Z,9.5
2023-04-10T07:54:57.949Z,9.125
2023-04-10T07:57:57.636Z,9.125
2023-04-10T08:00:58.374Z,9.25
2023-04-10T08:03:57.557Z,9.375
2023-04-10T08:06:56.768Z,9.625
2023-04-10T08:09:57.109Z,9.562
2023-04-10T08:12:57.796Z,9.562
2023-04-10T08:15:57.784Z,9.562
2023-04-10T08:18:57.561Z,9.687
2023-04-10T08:21:57.851Z,10.25
2023-04-10T08:24:57.187Z,10.625
2023-04-10T08:27:57.102Z,10.875
2023-04-10T08:30:58.501Z,10.687
2023-04-10T08:33:57.816Z,10.562
2023-04-10T08:36:57.473Z,10.562
2023-04-10T08:39:56.657Z,11.0
2023-04-10T08:42:57.131Z,11.0
2023-04-10T08:45:57.525Z,11.0
2023-04-10T08:48:57.882Z,10.937
2023-04-10T08:51:56.909Z,11.0
2023-04-10T08:54:57.046Z,11.0
2023-04-10T08:58:01.169Z,11.437
2023-04-10T09:00:58.044Z,11.312
2023-04-10T09:03:57.954Z,11.562
2023-04-10T09:06:57.656Z,11.625
2023-04-10T09:09:57.264Z,11.5
2023-04-10T09:12:57.870Z,11.375
2023-04-10T09:15:57.765Z,11.187
2023-04-10T09:18:57.609Z,11.875
2023-04-10T09:21:57.734Z,11.875
2023-04-10T09:24:57.589Z,12.25
2023-04-10T09:27:57.252Z,12.375
2023-04-10T09:30:57.188Z,12.125
2023-04-10T09:33:57.237Z,12.687
2023-04-10T09:36:57.865Z,13.375
2023-04-10T09:39:57.694Z,13.5
2023-04-10T09:42:57.496Z,13.5
2023-04-10T09:45:57.587Z,12.5
2023-04-10T09:48:57.356Z,12.687
2023-04-10T09:51:57.331Z,12.75
2023-04-10T09:54:57.488Z,12.812
2023-04-10T09:57:56.906Z,13.25
2023-04-10T10:00:57.489Z,13.75
2023-04-10T10:03:57.636Z,13.75
2023-04-10T10:06:56.735Z,13.812
2023-04-10T10:09:57.860Z,13.562
2023-04-10T10:12:56.966Z,13.187
2023-04-10T10:15:57.417Z,13.187
2023-04-10T10:18:57.998Z,13.5
2023-04-10T10:21:57.830Z,13.75
2023-04-10T10:24:56.906Z,13.625
2023-04-10T10:27:56.828Z,13.75
2023-04-10T10:30:57.140Z,13.312
2023-04-10T10:33:57.898Z,13.125
2023-04-10T10:36:57.756Z,13.5
2023-04-10T10:39:57.768Z,13.75
2023-04-10T10:42:57.047Z,13.75
2023-04-10T10:45:57.274Z,13.625
2023-04-10T10:48:57.536Z,14.187
2023-04-10T10:51:57.127Z,14.625
2023-04-10T10:54:59.794Z,13.937
2023-04-10T10:57:57.560Z,14.187
2023-04-10T11:00:56.982Z,14.187
2023-04-10T11:04:16.274Z,13.75
2023-04-10T11:06:57.505Z,13.625
2023-04-10T11:09:57.737Z,14.187
2023-04-10T11:12:57.351Z,14.125
2023-04-10T11:15:57.517Z,14.375
2023-04-10T11:19:10.487Z,14.5
2023-04-10T11:21:58.065Z,14.687
2023-04-10T11:24:57.978Z,15.0
2023-04-10T11:27:57.658Z,14.937
2023-04-10T11:30:57.822Z,14.062
2023-04-10T11:33:56.920Z,14.25
2023-04-10T11:36:57.770Z,14.437
2023-04-10T11:39:57.895Z,14.187
2023-04-10T11:42:57.713Z,14.187
2023-04-10T11:45:57.975Z,14.312
2023-04-10T11:48:57.700Z,14.312
2023-04-10T11:51:57.089Z,14.375
2023-04-10T11:54:57.877Z,14.062
2023-04-10T11:57:57.903Z,14.062
2023-04-10T12:00:57.760Z,14.312
2023-04-10T12:03:56.900Z,14.75
2023-04-10T12:06:56.948Z,15.312
2023-04-10T12:09:57.635Z,15.562
2023-04-10T12:12:57.377Z,14.75
2023-04-10T12:15:57.952Z,14.875
2023-04-10T12:18:57.705Z,14.875
2023-04-10T12:21:57.399Z,15.312
2023-04-10T12:24:58.365Z,15.875
2023-04-10T12:27:57.267Z,15.562
2023-04-10T12:30:58.249Z,15.562
2023-04-10T12:33:57.683Z,15.125
2023-04-10T12:36:57.013Z,14.687
2023-04-10T12:39:57.678Z,14.687
2023-04-10T12:42:57.118Z,14.812
2023-04-10T12:45:56.994Z,15.125
2023-04-10T12:48:57.894Z,15.25
2023-04-10T12:51:57.030Z,15.375
2023-04-10T12:54:57.316Z,15.687
2023-04-10T12:57:56.991Z,15.437
2023-04-10T13:00:57.908Z,15.062
2023-04-10T13:03:57.846Z,16.187
2023-04-10T13:06:57.709Z,15.812
2023-04-10T13:09:58.128Z,15.125
2023-04-10T13:12:57.507Z,15.5
2023-04-10T13:15:57.396Z,15.937
2023-04-10T13:18:57.893Z,15.875
2023-04-10T13:21:57.487Z,16.125
2023-04-10T13:24:57.401Z,16.0
2023-04-10T13:27:57.278Z,16.312
2023-04-10T13:30:57.321Z,15.562
2023-04-10T13:33:57.397Z,15.875
2023-04-10T13:36:57.511Z,15.875
2023-04-10T13:39:58.078Z,16.875
2023-04-10T13:42:57.272Z,16.375
2023-04-10T13:45:57.672Z,15.625
2023-04-10T13:48:57.845Z,15.625
2023-04-10T13:51:57.653Z,15.562
2023-04-10T13:54:57.670Z,15.0
2023-04-10T13:57:57.330Z,15.0
2023-04-10T14:00:57.921Z,14.812
2023-04-10T14:03:57.563Z,14.625
2023-04-10T14:06:57.815Z,14.625
2023-04-10T14:09:56.937Z,14.625
2023-04-10T14:12:56.872Z,14.625
2023-04-10T14:15:57.818Z,14.437
2023-04-10T14:18:57.172Z,14.687
2023-04-10T14:21:57.491Z,14.812
2023-04-10T14:25:09.254Z,14.625
2023-04-10T14:27:57.815Z,14.625
2023-04-10T14:30:57.416Z,14.625
2023-04-10T14:33:57.455Z,14.375
2023-04-10T14:36:57.125Z,14.625
2023-04-10T14:39:57.771Z,14.375
2023-04-10T14:42:57.613Z,14.375
2023-04-10T14:45:57.392Z,14.375
2023-04-10T14:48:57.516Z,14.375
2023-04-10T14:51:56.740Z,14.562
2023-04-10T14:54:57.273Z,14.562
2023-04-10T14:57:58.788Z,14.437
2023-04-10T15:00:57.549Z,14.187
2023-04-10T15:03:57.213Z,14.187
2023-04-10T15:06:57.585Z,14.125
2023-04-10T15:09:57.228Z,14.375
2023-04-10T15:12:57.465Z,14.375
2023-04-10T15:15:57.475Z,14.375
2023-04-10T15:18:57.515Z,14.5
2023-04-10T15:21:58.065Z,14.375
2023-04-10T15:24:57.828Z,14.375
2023-04-10T15:27:56.826Z,14.5
2023-04-10T15:30:57.912Z,14.187
2023-04-10T15:33:57.433Z,13.937
2023-04-10T15:36:58.184Z,13.937
2023-04-10T15:39:57.602Z,14.062
2023-04-10T15:42:58.086Z,14.062
2023-04-10T15:45:57.584Z,14.062
2023-04-10T15:48:58.364Z,13.937
2023-04-10T15:51:58.003Z,13.875
2023-04-10T15:54:58.151Z,13.812
2023-04-10T15:57:58.053Z,13.75
2023-04-10T16:00:58.791Z,13.875
2023-04-10T16:03:58.019Z,13.875
2023-04-10T16:06:57.776Z,13.875
2023-04-10T16:09:57.187Z,13.75
2023-04-10T16:12:57.566Z,13.75
2023-04-10T16:15:58.158Z,13.687
2023-04-10T16:18:58.690Z,13.625
2023-04-10T16:21:57.957Z,13.437
2023-04-10T16:24:57.642Z,13.437
2023-04-10T16:27:57.837Z,13.375
2023-04-10T16:30:57.728Z,13.375
2023-04-10T16:33:57.706Z,13.375
2023-04-10T16:36:57.673Z,13.25
2023-04-10T16:39:58.032Z,13.25
2023-04-10T16:42:57.633Z,13.125
2023-04-10T16:45:57.736Z,13.062
2023-04-10T16:48:57.711Z,13.062
2023-04-10T16:51:57.795Z,12.937
2023-04-10T16:54:57.131Z,12.875
2023-04-10T16:57:57.685Z,12.812
2023-04-10T17:00:57.984Z,12.75
2023-04-10T17:03:57.215Z,12.75
2023-04-10T17:06:57.544Z,12.75
2023-04-10T17:09:57.823Z,12.687
2023-04-10T17:12:57.065Z,12.625
2023-04-10T17:15:57.691Z,12.562
2023-04-10T17:18:57.358Z,12.5
2023-04-10T17:21:57.807Z,12.437
2023-04-10T17:24:58.234Z,12.375
2023-04-10T17:27:57.401Z,12.25
2023-04-10T17:30:57.638Z,12.125
2023-04-10T17:33:57.288Z,12.0
2023-04-10T17:36:57.408Z,11.875
2023-04-10T17:39:58.039Z,11.875
2023-04-10T17:42:57.340Z,11.625
2023-04-10T17:45:57.646Z,11.5
2023-04-10T17:48:59.869Z,11.5
2023-04-10T17:51:57.882Z,11.625
2023-04-10T17:54:58.115Z,11.625
2023-04-10T17:57:57.630Z,11.562
2023-04-10T18:00:58.544Z,11.625
2023-04-10T18:03:57.740Z,11.5
2023-04-10T18:06:57.801Z,11.375
2023-04-10T18:09:57.425Z,11.375
2023-04-10T18:12:58.119Z,11.187
2023-04-10T18:15:56.985Z,11.125
2023-04-10T18:18:57.288Z,11.125
2023-04-10T18:21:57.119Z,10.937
2023-04-10T18:24:57.629Z,11.0
2023-04-10T18:28:13.875Z,10.875
2023-04-10T18:30:58.383Z,10.937
2023-04-10T18:34:07.234Z,11.0
2023-04-10T18:36:57.047Z,11.0
2023-04-10T18:39:58.950Z,10.875
2023-04-10T18:42:57.785Z,10.812
2023-04-10T18:45:58.154Z,10.812
2023-04-10T18:48:57.582Z,10.75
2023-04-10T18:51:57.534Z,10.75
2023-04-10T18:54:57.898Z,10.75
2023-04-10T18:57:57.354Z,10.812
2023-04-10T19:01:26.246Z,10.875
2023-04-10T19:03:58.370Z,10.812
2023-04-10T19:06:57.257Z,10.937
2023-04-10T19:09:58.431Z,10.875
2023-04-10T19:12:57.251Z,10.875
2023-04-10T19:15:57.383Z,10.937
2023-04-10T19:18:58.052Z,10.937
2023-04-10T19:21:57.199Z,10.625
2023-04-10T19:24:57.669Z,10.5
2023-04-10T19:27:57.590Z,10.375
2023-04-10T19:30:57.122Z,10.25
2023-04-10T19:33:57.901Z,10.187
2023-04-10T19:36:57.349Z,10.125
2023-04-10T19:39:57.626Z,10.125
2023-04-10T19:42:59.245Z,10.125
2023-04-10T19:45:57.410Z,10.062
2023-04-10T19:48:57.613Z,10.062
2023-04-10T19:51:57.431Z,10.125
2023-04-10T19:54:58.032Z,10.125
2023-04-10T19:57:57.698Z,10.062
2023-04-10T20:00:57.558Z,10.062
2023-04-10T20:03:57.574Z,9.875
2023-04-10T20:06:57.056Z,9.937
2023-04-10T20:09:57.844Z,9.812
2023-04-10T20:12:57.649Z,9.812
2023-04-10T20:15:57.918Z,9.875
2023-04-10T20:18:57.273Z,9.812
2023-04-10T20:21:56.995Z,9.812
2023-04-10T20:24:57.471Z,9.75
2023-04-10T20:27:57.701Z,9.75
2023-04-10T20:30:58.270Z,9.687
2023-04-10T20:33:56.788Z,9.687
2023-04-10T20:36:57.393Z,9.687
2023-04-10T20:39:57.111Z,9.625
2023-04-10T20:42:57.894Z,9.687
2023-04-10T20:45:57.432Z,9.687
2023-04-10T20:48:57.241Z,9.812
2023-04-10T20:51:57.531Z,9.875
2023-04-10T20:54:57.635Z,9.937
2023-04-10T20:57:57.224Z,9.875
2023-04-10T21:00:57.534Z,9.812
2023-04-10T21:03:57.140Z,9.937
2023-04-10T21:06:56.809Z,9.875
2023-04-10T21:09:57.473Z,9.812
2023-04-10T21:12:57.571Z,9.875
2023-04-10T21:15:57.576Z,9.875
2023-04-10T21:18:57.544Z,9.812
2023-04-10T21:21:57.138Z,9.687
2023-04-10T21:24:57.604Z,9.75
2023-04-10T21:27:57.486Z,9.687
2023-04-10T21:30:57.828Z,9.75
2023-04-10T21:33:57.068Z,9.812
2023-04-10T21:36:57.666Z,9.687
2023-04-10T21:39:57.903Z,9.687
2023-04-10T21:42:57.307Z,9.75
2023-04-10T21:45:57.542Z,9.625
2023-04-10T21:48:57.136Z,9.562
2023-04-10T21:51:57.487Z,9.437
2023-04-10T21:54:57.539Z,9.437
2023-04-10T21:57:57.699Z,9.437
2023-04-10T22:00:57.837Z,9.312
2023-04-10T22:03:57.387Z,9.375
2023-04-10T22:06:57.817Z,9.375
2023-04-10T22:09:57.196Z,9.312
2023-04-10T22:12:57.237Z,9.375
2023-04-10T22:15:57.047Z,9.375
2023-04-10T22:18:57.394Z,9.437
2023-04-10T22:21:57.051Z,9.437
2023-04-10T22:24:57.332Z,9.437
2023-04-10T22:27:57.040Z,9.375
2023-04-10T22:30:57.871Z,9.25
2023-04-10T22:33:56.955Z,9.25
2023-04-10T22:36:57.850Z,9.187
2023-04-10T22:39:57.416Z,9.25
2023-04-10T22:42:57.600Z,9.25
2023-04-10T22:45:57.682Z,9.25
2023-04-10T22:48:57.096Z,9.25
2023-04-10T22:51:57.548Z,9.187
2023-04-10T22:54:56.880Z,9.187
2023-04-10T22:57:57.602Z,9.187
2023-04-10T23:00:57.269Z,9.187
2023-04-10T23:03:57.524Z,9.0
2023-04-10T23:06:56.896Z,8.875
2023-04-10T23:09:56.817Z,8.875
2023-04-10T23:12:56.779Z,8.875
2023-04-10T23:15:57.282Z,8.937
2023-04-10T23:18:57.389Z,9.0
2023-04-10T23:21:57.018Z,9.0
2023-04-10T23:24:57.846Z,9.0
2023-04-10T23:27:57.197Z,9.0
2023-04-10T23:30:57.881Z,9.437
2023-04-10T23:33:56.843Z,9.375
2023-04-10T23:36:57.412Z,9.312
2023-04-10T23:39:58.019Z,9.312
2023-04-10T23:42:57.246Z,9.437
2023-04-10T23:45:57.901Z,9.437
2023-04-10T23:48:56.934Z,9.312
2023-04-10T23:51:57.419Z,9.437
2023-04-10T23:54:57.208Z,9.5
2023-04-10T23:57:57.778Z,9.437
